Time;durP1;ratioP1;P1;durP2;ratioP2;P2;SDS_P1;SDS_P2;PMS_P1;PMS_P2;Temp;Humidity;BMP_temperature;BMP_pressure;BME280_temperature;BME280_humidity;BME280_pressure;Samples;Min_cycle;Max_cycle;Signal;HPM_P1;HPM_P2
2022/06/29 00:02:21;;;;;;;3.17;2.92;;;;;;;23.33;71.39;98355.81;5031795;28;20210;-59
2022/06/29 00:04:46;;;;;;;4.88;3.28;;;;;;;23.38;72.26;98340.22;5031954;28;20174;-59
2022/06/29 00:07:12;;;;;;;5.85;3.45;;;;;;;23.45;72.76;98345.56;5031915;28;20683;-59
2022/06/29 00:09:37;;;;;;;4.95;3.22;;;;;;;23.46;70.80;98350.66;5031935;28;20178;-59
2022/06/29 00:12:03;;;;;;;4.93;3.38;;;;;;;23.38;72.07;98352.59;5031896;28;20180;-60
2022/06/29 00:14:28;;;;;;;4.35;3.30;;;;;;;23.34;73.49;98349.50;5031990;28;20663;-59
2022/06/29 00:16:54;;;;;;;3.42;3.13;;;;;;;23.15;75.33;98362.44;5032148;28;20553;-59
2022/06/29 00:19:19;;;;;;;4.70;2.80;;;;;;;22.97;76.27;98354.91;5031871;28;20376;-59
2022/06/29 00:21:45;;;;;;;4.97;3.35;;;;;;;22.95;76.58;98353.47;5031752;28;20198;-59
2022/06/29 00:24:11;;;;;;;3.92;3.30;;;;;;;23.05;73.50;98346.06;5033918;28;20170;-59
2022/06/29 00:26:36;;;;;;;3.28;2.95;;;;;;;23.18;71.69;98347.09;5036023;28;20235;-59
2022/06/29 00:29:02;;;;;;;4.15;3.20;;;;;;;23.23;72.26;98338.59;5035754;28;20670;-59
2022/06/29 00:31:27;;;;;;;3.40;3.10;;;;;;;23.33;71.73;98339.13;5035711;28;20638;-59
2022/06/29 00:33:52;;;;;;;5.35;3.38;;;;;;;23.31;71.54;98334.03;5036206;28;20177;-59
2022/06/29 00:36:18;;;;;;;3.28;3.03;;;;;;;23.44;70.18;98336.00;5035854;28;20162;-59
2022/06/29 00:38:43;;;;;;;4.38;3.13;;;;;;;23.33;70.73;98326.75;5035493;28;20658;-59
2022/06/29 00:41:08;;;;;;;4.22;3.22;;;;;;;23.31;71.13;98326.09;5035399;28;20196;-59
2022/06/29 00:43:43;;;;;;;3.17;2.88;;;;;;;23.27;71.01;98331.94;5035512;28;20260;-59
2022/06/29 00:46:09;;;;;;;4.30;2.97;;;;;;;23.26;69.90;98332.97;5035764;28;20165;-59
2022/06/29 00:48:36;;;;;;;5.57;2.97;;;;;;;23.25;70.19;98326.03;5035418;28;20163;-59
2022/06/29 00:51:02;;;;;;;5.00;3.20;;;;;;;23.21;72.62;98330.06;5035560;28;20173;-59
2022/06/29 00:53:32;;;;;;;4.65;2.92;;;;;;;23.22;70.88;98326.41;5035561;28;20232;-59
2022/06/29 00:56:01;;;;;;;3.22;3.00;;;;;;;23.14;70.87;98323.84;5036057;28;20173;-59
2022/06/29 00:58:28;;;;;;;5.70;3.05;;;;;;;23.10;71.55;98323.41;5035422;28;20180;-59
2022/06/29 01:01:00;;;;;;;5.47;3.10;;;;;;;22.99;72.67;98333.63;5035048;28;20279;-59
2022/06/29 01:03:25;;;;;;;4.07;3.53;;;;;;;23.08;74.33;98335.94;5035080;28;20162;-59
2022/06/29 01:05:52;;;;;;;4.93;3.97;;;;;;;23.15;75.95;98326.31;5034985;28;20717;-59
2022/06/29 01:08:17;;;;;;;6.03;4.15;;;;;;;22.99;77.16;98300.13;5034974;28;20182;-59
2022/06/29 01:10:43;;;;;;;7.40;3.47;;;;;;;23.17;77.56;98340.16;5035222;28;20177;-59
2022/06/29 01:13:11;;;;;;;3.75;3.45;;;;;;;23.06;79.63;98332.69;5034886;28;20173;-59
2022/06/29 01:15:36;;;;;;;4.05;3.75;;;;;;;23.08;79.60;98328.03;5035092;28;20178;-59
2022/06/29 01:18:02;;;;;;;5.55;4.00;;;;;;;22.75;82.43;98326.00;5035087;28;20725;-59
2022/06/29 01:20:28;;;;;;;4.80;3.83;;;;;;;22.69;83.23;98313.53;5034710;28;20589;-59
2022/06/29 01:22:54;;;;;;;6.65;3.90;;;;;;;22.68;83.71;98317.97;5035285;28;20174;-59
2022/06/29 01:25:19;;;;;;;6.07;3.40;;;;;;;22.58;83.23;98314.00;5034940;28;20562;-59
2022/06/29 01:27:45;;;;;;;3.92;3.17;;;;;;;22.55;79.43;98322.28;5034634;28;20177;-59
2022/06/29 01:30:11;;;;;;;3.80;3.45;;;;;;;22.65;79.94;98320.19;5034600;28;20178;-59
2022/06/29 01:32:40;;;;;;;3.40;3.10;;;;;;;22.60;79.23;98315.44;5034824;28;20311;-56
2022/06/29 01:35:11;;;;;;;4.60;3.15;;;;;;;22.68;76.58;98319.81;5034216;28;20189;-57
2022/06/29 01:37:38;;;;;;;4.63;2.97;;;;;;;22.68;76.23;98323.25;5034651;28;20561;-57
2022/06/29 01:40:04;;;;;;;5.88;3.20;;;;;;;22.63;76.55;98316.91;5034302;28;20213;-59
2022/06/29 01:42:30;;;;;;;6.07;3.25;;;;;;;22.57;76.21;98315.00;5034337;28;20170;-59
2022/06/29 01:44:56;;;;;;;5.00;2.90;;;;;;;22.59;75.58;98303.28;5034583;28;20562;-59
2022/06/29 01:47:21;;;;;;;4.20;2.83;;;;;;;22.58;76.10;98306.09;5034274;28;20174;-59
2022/06/29 01:49:47;;;;;;;3.55;3.25;;;;;;;22.61;74.24;98298.63;5034446;28;20174;-59
2022/06/29 01:52:12;;;;;;;6.55;3.70;;;;;;;22.69;74.02;98313.53;5034231;28;20185;-58
2022/06/29 01:54:38;;;;;;;6.30;3.90;;;;;;;22.63;75.23;98306.34;5034118;28;20170;-59
2022/06/29 01:57:03;;;;;;;4.85;4.30;;;;;;;22.70;75.03;98309.91;5034008;28;20181;-57
2022/06/29 01:59:29;;;;;;;4.75;4.32;;;;;;;22.62;75.20;98312.63;5033981;28;20228;-57
2022/06/29 02:01:54;;;;;;;4.45;3.92;;;;;;;22.43;75.49;98307.88;5034394;28;20556;-57
2022/06/29 02:04:19;;;;;;;4.30;3.90;;;;;;;22.49;75.32;98309.84;5033975;28;20673;-57
2022/06/29 02:06:45;;;;;;;4.15;3.72;;;;;;;22.40;75.60;98306.44;5033986;28;20181;-57
2022/06/29 02:09:11;;;;;;;6.35;3.65;;;;;;;22.43;75.90;98299.97;5034183;28;20178;-57
2022/06/29 02:11:36;;;;;;;9.70;3.55;;;;;;;22.37;76.30;98298.06;5033849;28;20174;-57
2022/06/29 02:14:02;;;;;;;4.18;3.25;;;;;;;22.18;77.59;98295.94;5034235;28;20252;-57
2022/06/29 02:16:27;;;;;;;7.07;3.38;;;;;;;22.11;77.80;98292.41;5034286;28;20235;-57
2022/06/29 02:18:53;;;;;;;3.58;3.28;;;;;;;22.12;77.22;98292.22;5033646;28;20654;-57
2022/06/29 02:21:18;;;;;;;3.72;3.42;;;;;;;22.18;77.48;98293.31;5033599;28;20200;-57
2022/06/29 02:23:44;;;;;;;3.38;3.08;;;;;;;22.17;76.67;98299.59;5033648;28;20638;-57
2022/06/29 02:26:10;;;;;;;3.20;3.00;;;;;;;22.10;76.83;98285.50;5033575;28;20256;-57
2022/06/29 02:28:36;;;;;;;6.90;3.10;;;;;;;21.93;77.63;98295.38;5032624;28;20267;-57
2022/06/29 02:36:29;;;;;;;3.88;3.28;;;;;;;21.79;77.46;98284.81;5033670;28;20729;-58
2022/06/29 02:38:54;;;;;;;4.30;3.25;;;;;;;21.92;77.79;98288.44;5033326;28;20256;-57
2022/06/29 02:41:20;;;;;;;3.28;3.00;;;;;;;21.86;78.17;98285.72;5031948;28;20198;-58
2022/06/29 02:43:45;;;;;;;3.70;3.15;;;;;;;21.85;78.28;98276.19;5033174;28;20260;-58
2022/06/29 02:46:11;;;;;;;3.15;2.95;;;;;;;21.94;78.37;98275.09;5032483;28;20248;-58
2022/06/29 02:48:36;;;;;;;6.22;3.28;;;;;;;21.94;77.83;98277.72;5033471;28;20205;-58
2022/06/29 02:51:02;;;;;;;5.63;2.88;;;;;;;22.06;77.30;98284.22;5033090;28;20181;-58
2022/06/29 02:53:27;;;;;;;6.85;3.47;;;;;;;22.03;77.57;98287.22;5033075;28;20178;-58
2022/06/29 02:55:54;;;;;;;3.30;3.00;;;;;;;22.04;77.34;98289.66;5033566;28;20170;-58
2022/06/29 02:58:19;;;;;;;5.13;3.67;;;;;;;21.90;78.40;98290.44;5033215;28;20284;-58
2022/06/29 03:00:44;;;;;;;5.70;3.10;;;;;;;21.85;78.05;98292.00;5032616;28;20243;-58
2022/06/29 03:03:10;;;;;;;4.07;3.50;;;;;;;21.78;78.67;98296.31;5033039;28;20177;-58
2022/06/29 03:05:35;;;;;;;3.35;3.05;;;;;;;21.60;79.38;98290.50;5032798;28;20178;-58
2022/06/29 03:08:01;;;;;;;4.18;2.85;;;;;;;21.55;79.72;98296.31;5032737;28;20176;-58
2022/06/29 03:10:26;;;;;;;3.58;3.30;;;;;;;21.47;81.10;98298.19;5032733;28;20166;-58
2022/06/29 03:12:51;;;;;;;6.28;3.17;;;;;;;21.34;82.17;98292.69;5032714;28;20181;-58
2022/06/29 03:15:18;;;;;;;3.50;3.20;;;;;;;21.38;82.04;98283.47;5032892;28;20178;-58
2022/06/29 03:17:43;;;;;;;3.20;2.90;;;;;;;21.37;82.40;98292.31;5032554;28;20173;-58
2022/06/29 03:20:09;;;;;;;3.40;3.10;;;;;;;21.37;82.28;98285.25;5032471;28;20201;-58
2022/06/29 03:22:35;;;;;;;5.25;3.25;;;;;;;21.36;82.11;98290.69;5032800;28;20201;-58
2022/06/29 03:25:01;;;;;;;2.70;2.50;;;;;;;21.40;81.01;98290.16;5032477;28;20201;-58
2022/06/29 03:27:26;;;;;;;3.42;2.70;;;;;;;21.48;81.26;98284.84;5032452;28;20173;-58
2022/06/29 03:29:52;;;;;;;4.20;2.78;;;;;;;21.49;80.83;98278.59;5031467;28;20178;-58
2022/06/29 03:32:17;;;;;;;3.47;3.17;;;;;;;21.57;80.31;98277.72;5032663;28;20181;-58
2022/06/29 03:34:43;;;;;;;3.80;3.15;;;;;;;21.51;80.27;98273.94;5032598;28;20681;-58
2022/06/29 03:37:08;;;;;;;4.22;3.20;;;;;;;21.54;80.63;98270.16;5032569;28;20209;-58
2022/06/29 03:39:34;;;;;;;4.53;3.47;;;;;;;21.59;80.69;98271.28;5030922;28;20166;-58
2022/06/29 03:42:00;;;;;;;3.28;2.80;;;;;;;21.65;79.67;98270.56;5032793;28;20181;-58
2022/06/29 03:44:25;;;;;;;4.60;3.22;;;;;;;21.70;79.90;98277.97;5032433;28;20251;-58
2022/06/29 03:46:51;;;;;;;3.53;3.22;;;;;;;21.69;79.52;98253.41;5032753;28;20228;-58
2022/06/29 03:49:16;;;;;;;3.53;2.90;;;;;;;21.83;79.61;98259.72;5032436;28;20173;-58
2022/06/29 03:51:42;;;;;;;3.50;3.20;;;;;;;21.91;77.76;98254.41;5032365;28;20249;-58
2022/06/29 03:54:07;;;;;;;2.90;2.70;;;;;;;22.06;77.41;98268.41;5032643;28;20264;-58
2022/06/29 03:56:33;;;;;;;3.10;2.90;;;;;;;22.10;78.21;98264.41;5032082;28;20166;-58
2022/06/29 03:58:58;;;;;;;7.47;3.75;;;;;;;22.24;78.96;98266.22;5031834;28;20181;-58
2022/06/29 04:01:23;;;;;;;7.75;3.42;;;;;;;22.34;78.91;98258.88;5031781;28;20229;-58
2022/06/29 04:03:49;;;;;;;4.25;3.22;;;;;;;22.41;77.49;98254.50;5032151;28;20174;-58
2022/06/29 04:06:14;;;;;;;3.83;3.45;;;;;;;22.57;76.96;98263.09;5031965;28;20235;-58
2022/06/29 04:08:40;;;;;;;3.60;3.30;;;;;;;22.72;76.26;98263.06;5030652;28;20173;-58
2022/06/29 04:13:52;;;;;;;3.00;2.80;;;;;;;22.87;74.64;98274.41;5001154;28;20200;-58
2022/06/29 04:16:18;;;;;;;4.72;2.80;;;;;;;22.95;72.33;98280.38;5032106;28;20170;-58
2022/06/29 04:18:43;;;;;;;6.70;3.08;;;;;;;23.02;72.77;98267.28;5032110;28;20339;-58
2022/06/29 04:21:08;;;;;;;3.15;2.95;;;;;;;23.05;71.45;98266.88;5031800;28;20202;-58
2022/06/29 04:23:34;;;;;;;5.40;3.50;;;;;;;23.16;72.41;98266.41;5032019;28;20189;-58
2022/06/29 04:25:59;;;;;;;3.85;3.15;;;;;;;23.27;72.25;98279.13;5031719;28;20606;-58
2022/06/29 04:28:25;;;;;;;4.32;3.10;;;;;;;23.37;70.90;98266.44;5030457;28;20177;-58
2022/06/29 04:30:50;;;;;;;4.72;3.10;;;;;;;23.42;70.68;98266.72;5031923;28;20162;-58
2022/06/29 04:33:16;;;;;;;4.53;2.92;;;;;;;23.48;70.75;98268.59;5031682;28;20212;-58
2022/06/29 04:35:41;;;;;;;4.03;3.17;;;;;;;23.46;72.10;98265.31;5032258;28;20205;-58
2022/06/29 04:38:06;;;;;;;3.72;3.33;;;;;;;23.53;71.95;98264.38;5032208;28;20185;-58
2022/06/29 04:40:32;;;;;;;6.90;3.35;;;;;;;23.57;72.54;98264.78;5032083;28;20260;-58
2022/06/29 04:42:57;;;;;;;6.95;3.53;;;;;;;23.71;73.76;98264.72;5031918;28;20177;-58
2022/06/29 04:48:06;;;;;;;3.53;3.25;;;;;;;23.83;73.25;98262.38;5031928;28;20220;-58
2022/06/29 04:50:32;;;;;;;3.35;3.13;;;;;;;23.94;72.17;98273.28;5031819;28;20643;-58
2022/06/29 04:52:57;;;;;;;4.32;3.20;;;;;;;23.96;71.65;98257.22;5032041;28;20181;-58
2022/06/29 04:55:25;;;;;;;3.35;3.05;;;;;;;24.10;71.76;98270.34;5031755;28;20239;-58
2022/06/29 04:57:51;;;;;;;3.58;3.13;;;;;;;24.06;71.32;98255.88;5031751;28;20232;-58
2022/06/29 05:00:16;;;;;;;3.67;2.92;;;;;;;24.15;70.39;98273.22;5031442;28;20198;-58
2022/06/29 05:02:42;;;;;;;3.85;3.00;;;;;;;24.24;69.60;98278.16;5030479;28;20273;-58
2022/06/29 05:05:08;;;;;;;3.60;3.40;;;;;;;24.15;70.03;98265.28;5031302;28;20182;-58
2022/06/29 05:07:33;;;;;;;5.07;3.25;;;;;;;24.28;70.54;98274.13;5031387;28;20655;-58
2022/06/29 05:09:59;;;;;;;4.60;3.33;;;;;;;24.26;70.28;98275.34;5032282;28;20265;-58
2022/06/29 05:12:24;;;;;;;5.35;3.40;;;;;;;24.37;70.53;98280.09;5034902;28;20177;-58
2022/06/29 05:14:50;;;;;;;4.63;3.60;;;;;;;24.49;70.33;98279.31;5034855;28;20178;-58
2022/06/29 05:17:16;;;;;;;5.93;3.45;;;;;;;24.56;71.50;98276.72;5035078;28;20181;-58
2022/06/29 05:19:41;;;;;;;5.78;3.40;;;;;;;24.47;70.84;98284.00;5034681;28;20189;-58
2022/06/29 05:22:06;;;;;;;3.38;3.10;;;;;;;24.35;70.29;98279.44;5033489;28;20187;-58
2022/06/29 05:24:32;;;;;;;3.17;2.90;;;;;;;24.28;70.80;98284.72;5034752;28;20232;-58
2022/06/29 05:26:57;;;;;;;3.38;3.08;;;;;;;24.37;70.54;98296.75;5033415;28;20177;-58
2022/06/29 05:29:25;;;;;;;6.53;3.22;;;;;;;24.39;70.28;98297.38;5034682;28;20170;-58
2022/06/29 05:31:51;;;;;;;4.05;3.40;;;;;;;24.39;69.67;98292.09;5034899;28;20246;-58
2022/06/29 05:34:17;;;;;;;3.42;3.13;;;;;;;24.45;69.75;98299.25;5034571;28;20260;-58
2022/06/29 05:36:42;;;;;;;4.00;3.67;;;;;;;24.21;70.83;98297.06;5034456;28;20615;-58
2022/06/29 05:39:07;;;;;;;4.95;3.63;;;;;;;24.29;70.42;98290.81;5034406;28;20174;-59
2022/06/29 05:41:33;;;;;;;3.50;3.20;;;;;;;24.25;69.85;98289.53;5034933;28;20201;-58
2022/06/29 05:43:58;;;;;;;5.93;3.20;;;;;;;24.24;70.60;98299.31;5034352;28;20181;-58
2022/06/29 05:46:24;;;;;;;3.50;3.20;;;;;;;24.36;70.04;98291.66;5034630;28;20717;-58
2022/06/29 05:48:49;;;;;;;3.70;3.40;;;;;;;24.42;70.60;98299.66;5033033;28;20567;-58
2022/06/29 05:51:14;;;;;;;3.38;3.00;;;;;;;24.49;69.16;98297.84;5034498;28;20260;-58
2022/06/29 05:53:40;;;;;;;3.20;3.00;;;;;;;24.62;68.93;98297.94;5032973;28;20188;-58
2022/06/29 05:56:06;;;;;;;4.20;3.55;;;;;;;24.66;68.94;98309.78;5034468;28;20177;-58
2022/06/29 05:58:31;;;;;;;3.45;3.10;;;;;;;24.74;67.60;98301.66;5034455;28;20178;-58
2022/06/29 06:00:57;;;;;;;5.82;3.72;;;;;;;24.74;68.54;98314.09;5033812;28;20213;-58
2022/06/29 06:03:23;;;;;;;5.72;3.53;;;;;;;24.77;68.42;98303.94;5034264;28;20185;-58
2022/06/29 06:05:48;;;;;;;7.55;3.25;;;;;;;24.84;68.85;98312.72;5032696;28;20565;-58
2022/06/29 06:08:15;;;;;;;3.40;3.20;;;;;;;24.94;68.27;98313.19;5033937;28;20284;-58
2022/06/29 06:10:41;;;;;;;4.47;3.58;;;;;;;24.84;69.10;98315.38;5034651;28;20185;-58
2022/06/29 06:13:07;;;;;;;14.50;3.10;;;;;;;25.05;68.63;98325.03;5034078;28;20666;-58
2022/06/29 06:15:36;;;;;;;3.95;3.25;;;;;;;25.17;68.18;98321.63;5033769;28;20728;-58
2022/06/29 06:18:02;;;;;;;5.07;3.40;;;;;;;25.29;66.91;98322.69;5033784;28;20654;-58
2022/06/29 06:20:28;;;;;;;5.60;3.40;;;;;;;25.47;66.28;98328.25;5033611;28;20267;-58
2022/06/29 06:22:55;;;;;;;3.38;2.92;;;;;;;25.46;65.97;98323.97;5033734;28;20264;-58
2022/06/29 06:25:20;;;;;;;3.55;3.25;;;;;;;25.57;67.41;98320.72;5034732;28;20182;-58
2022/06/29 06:27:46;;;;;;;11.38;3.78;;;;;;;25.62;68.89;98328.91;5033834;28;20624;-58
2022/06/29 06:30:12;;;;;;;3.97;3.45;;;;;;;25.70;68.93;98326.03;5034070;28;20166;-58
2022/06/29 06:32:37;;;;;;;4.65;3.80;;;;;;;25.69;69.63;98323.59;5033455;28;20185;-58
2022/06/29 06:35:03;;;;;;;6.80;3.90;;;;;;;25.78;67.65;98322.38;5033674;28;20177;-58
2022/06/29 06:37:29;;;;;;;6.13;3.75;;;;;;;25.89;67.45;98322.59;5033920;28;20178;-58
2022/06/29 06:42:40;;;;;;;4.70;3.70;;;;;;;25.95;66.76;98324.47;5033845;28;20258;-58
2022/06/29 06:45:06;;;;;;;4.60;3.47;;;;;;;26.02;67.07;98329.78;5033283;28;20191;-58
2022/06/29 06:47:32;;;;;;;4.75;3.53;;;;;;;26.02;66.97;98327.13;5033133;28;20174;-58
2022/06/29 06:49:57;;;;;;;5.20;4.05;;;;;;;26.14;67.12;98323.66;5033369;28;20176;-58
2022/06/29 06:52:22;;;;;;;7.15;3.97;;;;;;;26.24;66.43;98317.94;5031817;28;20180;-58
2022/06/29 06:54:48;;;;;;;5.43;3.88;;;;;;;26.27;66.82;98321.00;5033173;28;20170;-58
2022/06/29 06:57:13;;;;;;;4.72;3.90;;;;;;;26.40;66.32;98320.97;5033230;28;20720;-58
2022/06/29 06:59:39;;;;;;;6.75;6.15;;;;;;;26.57;66.25;98324.84;5033017;28;20183;-58
2022/06/29 07:02:04;;;;;;;18.85;10.18;;;;;;;26.75;64.96;98326.81;5032704;28;20263;-58
2022/06/29 07:04:29;;;;;;;7.88;4.47;;;;;;;26.80;64.32;98319.88;5033096;28;20172;-58
2022/06/29 07:06:55;;;;;;;7.47;4.57;;;;;;;26.92;64.22;98318.19;5033063;28;20691;-58
2022/06/29 07:09:20;;;;;;;5.93;4.50;;;;;;;27.05;64.44;98318.13;5032801;28;20173;-58
2022/06/29 07:11:46;;;;;;;5.60;4.57;;;;;;;27.10;63.56;98315.66;5032689;28;20654;-58
2022/06/29 07:14:11;;;;;;;9.15;4.30;;;;;;;27.08;62.39;98317.72;5032594;28;20180;-58
2022/06/29 07:16:37;;;;;;;10.07;4.38;;;;;;;27.22;62.22;98326.50;5032678;28;20284;-58
2022/06/29 07:19:02;;;;;;;8.68;4.60;;;;;;;27.29;61.62;98325.41;5032597;28;20174;-58
2022/06/29 07:21:27;;;;;;;8.50;5.07;;;;;;;27.39;61.33;98327.59;5032513;28;20197;-58
2022/06/29 07:23:58;;;;;;;16.48;4.60;;;;;;;27.48;61.30;98332.47;5032476;28;20706;-58
2022/06/29 07:26:24;;;;;;;5.18;4.57;;;;;;;27.57;60.76;98323.22;5032775;28;20162;-58
2022/06/29 07:28:49;;;;;;;5.53;4.95;;;;;;;27.66;60.72;98327.25;5032521;28;20181;-58
2022/06/29 07:31:14;;;;;;;11.98;4.43;;;;;;;27.77;60.83;98331.06;5032385;28;20578;-58
2022/06/29 07:33:40;;;;;;;5.82;4.75;;;;;;;27.80;60.06;98323.50;5032470;28;20181;-58
2022/06/29 07:36:05;;;;;;;6.15;4.47;;;;;;;27.92;60.26;98323.63;5032661;28;20210;-58
2022/06/29 07:38:31;;;;;;;6.45;4.53;;;;;;;27.95;60.33;98321.34;5032531;28;20239;-58
2022/06/29 07:40:58;;;;;;;10.00;4.72;;;;;;;28.00;60.00;98324.16;5032239;28;20193;-58
2022/06/29 07:43:24;;;;;;;7.53;4.50;;;;;;;28.06;59.82;98328.63;5032211;28;20178;-58
2022/06/29 07:45:49;;;;;;;7.45;4.68;;;;;;;28.06;59.27;98317.97;5032239;28;20178;-58
2022/06/29 07:48:14;;;;;;;7.80;4.50;;;;;;;28.15;59.64;98321.97;5032463;28;20224;-58
2022/06/29 07:50:40;;;;;;;7.97;4.30;;;;;;;28.20;57.37;98318.66;5030862;28;20182;-58
2022/06/29 07:53:05;;;;;;;8.90;3.97;;;;;;;28.22;57.77;98317.41;5032414;28;20186;-58
2022/06/29 07:55:31;;;;;;;5.80;4.05;;;;;;;28.30;56.48;98333.13;5032673;28;20169;-58
2022/06/29 07:57:56;;;;;;;5.25;4.88;;;;;;;28.32;56.11;98325.72;5031978;28;20650;-58
2022/06/29 08:00:22;;;;;;;4.53;4.13;;;;;;;28.37;56.55;98325.91;5031526;28;20331;-58
2022/06/29 08:02:48;;;;;;;5.78;3.88;;;;;;;28.47;55.04;98322.75;5032003;28;20533;-58
2022/06/29 08:05:14;;;;;;;4.55;4.07;;;;;;;28.50;55.35;98330.31;5032286;28;20205;-58
2022/06/29 08:07:39;;;;;;;4.65;3.83;;;;;;;28.52;53.91;98326.34;5031066;28;20617;-58
2022/06/29 08:10:07;;;;;;;7.28;3.38;;;;;;;28.60;52.92;98320.75;5032506;28;20172;-58
2022/06/29 08:12:34;;;;;;;3.70;3.10;;;;;;;28.68;51.22;98325.78;5031943;28;20185;-58
2022/06/29 08:15:00;;;;;;;3.83;3.53;;;;;;;28.69;51.80;98324.75;5031966;28;20251;-58
2022/06/29 08:17:26;;;;;;;5.82;3.70;;;;;;;28.77;52.41;98321.81;5030610;28;20646;-58
2022/06/29 08:19:51;;;;;;;6.20;3.75;;;;;;;28.84;51.89;98324.38;5031950;28;20186;-58
2022/06/29 08:22:17;;;;;;;5.82;3.67;;;;;;;28.91;50.38;98327.81;5031597;28;20619;-58
2022/06/29 08:24:42;;;;;;;5.50;3.33;;;;;;;28.92;49.08;98330.22;5031846;28;20726;-58
2022/06/29 08:27:08;;;;;;;5.90;3.28;;;;;;;28.88;49.43;98339.72;5031669;28;20651;-58
2022/06/29 08:29:33;;;;;;;7.45;3.60;;;;;;;28.80;50.47;98334.66;5031503;28;20182;-58
2022/06/29 08:31:58;;;;;;;6.70;3.65;;;;;;;28.69;49.23;98331.94;5031944;28;20181;-58
2022/06/29 08:34:39;;;;;;;5.72;4.07;;;;;;;28.82;50.02;98337.94;5031808;28;20170;-58
2022/06/29 08:37:05;;;;;;;4.82;3.90;;;;;;;28.68;49.69;98323.13;5031475;28;20193;-58
2022/06/29 08:39:31;;;;;;;5.22;3.90;;;;;;;28.84;48.84;98327.03;5032362;28;20212;-58
2022/06/29 08:42:00;;;;;;;6.60;4.03;;;;;;;28.91;48.64;98323.25;5031856;28;20233;-58
2022/06/29 08:44:26;;;;;;;4.70;3.65;;;;;;;28.89;48.06;98322.69;5031937;28;20190;-58
2022/06/29 08:46:52;;;;;;;8.25;4.03;;;;;;;29.07;49.39;98338.69;5036237;28;20181;-58
2022/06/29 08:49:17;;;;;;;5.25;3.70;;;;;;;29.09;49.24;98343.81;5035657;28;20228;-58
2022/06/29 08:51:44;;;;;;;7.95;4.13;;;;;;;29.23;49.31;98351.41;5035302;28;20665;-59
2022/06/29 08:54:12;;;;;;;9.38;4.30;;;;;;;29.28;48.89;98348.91;5035330;28;20177;-58
2022/06/29 08:56:38;;;;;;;3.90;3.47;;;;;;;29.38;47.08;98341.16;5035240;28;20260;-58
2022/06/29 08:59:04;;;;;;;4.13;3.70;;;;;;;29.51;47.02;98354.28;5035273;28;20264;-58
2022/06/29 09:01:30;;;;;;;6.82;4.53;;;;;;;29.54;46.99;98356.56;5035079;28;20212;-58
2022/06/29 09:03:55;;;;;;;4.78;3.35;;;;;;;29.50;45.33;98349.22;5035101;28;20178;-58
2022/06/29 09:06:21;;;;;;;6.90;3.45;;;;;;;29.35;46.43;98352.28;5035098;28;20196;-58
2022/06/29 09:08:46;;;;;;;5.88;3.10;;;;;;;29.39;46.05;98348.09;5035097;28;20174;-58
2022/06/29 09:11:24;;;;;;;4.53;3.22;;;;;;;29.54;44.22;98351.22;5033489;28;20216;-58
2022/06/29 09:14:11;;;;;;;5.22;3.30;;;;;;;29.62;43.72;98353.56;5035069;28;20188;-58
2022/06/29 09:17:01;;;;;;;4.00;3.30;;;;;;;29.69;44.97;98346.31;5034935;28;20165;-58
2022/06/29 09:19:44;;;;;;;7.10;3.05;;;;;;;29.80;45.01;98348.16;5035037;28;20201;-58
2022/06/29 09:22:09;;;;;;;7.35;3.28;;;;;;;29.89;45.42;98354.00;5035061;28;20676;-58
2022/06/29 09:24:35;;;;;;;5.15;2.97;;;;;;;29.89;43.82;98354.81;5035586;28;20261;-58
2022/06/29 09:27:06;;;;;;;4.82;3.20;;;;;;;29.96;42.90;98355.53;5034734;28;20170;-58
2022/06/29 09:29:36;;;;;;;4.10;2.88;;;;;;;29.91;44.08;98352.72;5034931;28;20265;-58
2022/06/29 09:32:08;;;;;;;8.05;2.95;;;;;;;29.90;40.65;98361.78;5034987;28;20204;-58
2022/06/29 09:34:43;;;;;;;4.82;2.65;;;;;;;29.88;39.97;98358.53;5034855;28;20162;-58
2022/06/29 09:37:12;;;;;;;3.67;2.70;;;;;;;29.83;39.70;98350.38;5034558;28;20158;-58
2022/06/29 09:39:50;;;;;;;5.55;2.72;;;;;;;29.86;39.18;98360.59;5034735;28;20204;-58
2022/06/29 09:42:24;;;;;;;4.53;2.50;;;;;;;29.96;38.05;98363.53;5034440;28;20158;-58
2022/06/29 09:44:49;;;;;;;3.60;2.67;;;;;;;29.91;38.67;98347.38;5034764;28;20248;-58
2022/06/29 09:47:19;;;;;;;6.13;2.55;;;;;;;30.03;38.31;98364.22;5034406;28;20640;-58
2022/06/29 09:50:02;;;;;;;3.75;2.42;;;;;;;30.18;38.56;98358.47;5034294;28;20192;-58
2022/06/29 09:52:27;;;;;;;6.07;3.00;;;;;;;30.28;37.60;98361.41;5034503;28;20264;-58
2022/06/29 09:54:56;;;;;;;4.47;2.55;;;;;;;30.41;37.06;98361.19;5034184;28;20652;-58
2022/06/29 09:57:31;;;;;;;5.05;2.58;;;;;;;30.46;36.59;98362.13;5033737;28;20232;-58
2022/06/29 10:02:50;;;;;;;4.50;2.80;;;;;;;30.67;36.54;98361.53;5034260;28;20181;-59
2022/06/29 10:05:20;;;;;;;4.65;2.42;;;;;;;30.74;36.44;98356.91;5034073;28;20169;-58
2022/06/29 10:07:48;;;;;;;4.53;2.53;;;;;;;30.87;35.69;98359.34;5034603;28;20181;-58
2022/06/29 10:10:16;;;;;;;5.90;2.47;;;;;;;30.79;35.93;98357.00;5034499;28;20166;-58
2022/06/29 10:15:56;;;;;;;5.32;2.50;;;;;;;30.76;35.31;98354.81;5034110;28;20201;-58
2022/06/29 10:18:28;;;;;;;3.20;2.50;;;;;;;30.74;36.53;98354.25;5033824;28;20241;-58
2022/06/29 10:20:54;;;;;;;5.22;3.08;;;;;;;30.77;35.92;98353.75;5033991;28;20213;-58
2022/06/29 10:23:42;;;;;;;12.05;2.80;;;;;;;30.77;35.33;98348.41;5033966;28;20230;-58
2022/06/29 10:26:37;;;;;;;6.72;3.30;;;;;;;30.90;36.00;98353.50;5033633;28;20261;-58
2022/06/29 10:29:05;;;;;;;4.88;2.90;;;;;;;31.12;36.01;98346.50;5032573;28;20616;-58
2022/06/29 10:31:49;;;;;;;4.63;2.72;;;;;;;31.34;35.51;98355.53;5033570;28;20184;-58
2022/06/29 10:34:30;;;;;;;2.92;2.45;;;;;;;31.51;34.81;98355.56;5034053;28;20256;-58
2022/06/29 10:37:05;;;;;;;3.25;2.70;;;;;;;31.69;35.15;98348.16;5033393;28;20186;-58
2022/06/29 10:39:45;;;;;;;3.97;2.90;;;;;;;31.90;34.74;98355.53;5033313;28;20236;-58
2022/06/29 10:45:19;;;;;;;6.22;2.50;;;;;;;32.05;33.69;98347.75;5033588;28;20244;-58
2022/06/29 10:47:45;;;;;;;2.42;2.20;;;;;;;31.81;33.58;98351.63;5033248;28;20604;-58
2022/06/29 10:50:14;;;;;;;4.28;2.33;;;;;;;31.98;34.24;98357.81;5033456;28;20169;-58
2022/06/29 10:52:41;;;;;;;2.90;2.70;;;;;;;31.91;33.92;98354.47;5033056;28;20674;-58
2022/06/29 10:55:07;;;;;;;4.10;2.80;;;;;;;31.98;33.50;98351.63;5031907;28;20189;-58
2022/06/29 10:57:37;;;;;;;4.00;2.80;;;;;;;32.29;33.01;98351.91;5033000;28;20201;-58
2022/06/29 11:00:08;;;;;;;6.00;2.45;;;;;;;32.47;33.17;98348.19;5032900;28;20260;-58
2022/06/29 11:02:34;;;;;;;5.53;2.40;;;;;;;32.45;32.92;98353.78;5032776;28;20309;-58
2022/06/29 11:05:00;;;;;;;5.80;2.53;;;;;;;32.55;32.74;98358.47;5033139;28;20169;-58
2022/06/29 11:12:56;;;;;;;4.78;2.25;;;;;;;32.99;32.22;98344.91;5033374;28;20169;-58
2022/06/29 11:15:42;;;;;;;5.47;2.55;;;;;;;33.32;32.21;98347.50;5032958;28;20209;-58
2022/06/29 11:18:12;;;;;;;5.40;2.60;;;;;;;33.57;31.17;98355.81;5032588;28;20158;-58
2022/06/29 11:20:38;;;;;;;8.75;2.65;;;;;;;33.47;31.80;98341.47;5032775;28;20229;-58
2022/06/29 11:23:10;;;;;;;2.72;2.50;;;;;;;33.64;31.48;98337.63;5032816;28;20558;-58
2022/06/29 11:25:37;;;;;;;4.25;2.50;;;;;;;33.77;32.81;98345.31;5032783;28;20154;-58
2022/06/29 11:28:03;;;;;;;5.05;2.50;;;;;;;33.90;31.16;98344.91;5032633;28;20195;-58
2022/06/29 11:30:28;;;;;;;2.60;2.40;;;;;;;33.86;29.43;98341.09;5032617;28;20169;-59
2022/06/29 11:32:54;;;;;;;3.22;2.45;;;;;;;33.85;30.73;98339.47;5032569;28;20677;-58
2022/06/29 11:35:21;;;;;;;2.70;2.13;;;;;;;33.85;30.81;98334.09;5032278;28;20174;-58
2022/06/29 11:38:02;;;;;;;2.08;1.90;;;;;;;34.05;31.09;98334.25;5032298;28;20185;-59
2022/06/29 11:40:42;;;;;;;3.50;2.15;;;;;;;34.15;30.49;98339.72;5032288;28;20192;-58
2022/06/29 11:43:17;;;;;;;5.32;2.25;;;;;;;34.05;30.57;98338.84;5032448;28;20256;-58
2022/06/29 11:45:49;;;;;;;5.85;2.65;;;;;;;34.01;30.59;98324.28;5032169;28;20193;-58
2022/06/29 11:48:26;;;;;;;2.05;1.88;;;;;;;33.97;29.91;98334.75;5032263;28;20261;-58
2022/06/29 11:51:00;;;;;;;2.90;2.50;;;;;;;33.88;30.00;98332.78;5032120;28;20166;-58
2022/06/29 11:53:38;;;;;;;3.47;2.33;;;;;;;33.94;31.73;98324.53;5032155;28;20181;-58
2022/06/29 11:56:09;;;;;;;3.88;2.20;;;;;;;34.14;30.40;98326.53;5032693;28;20208;-58
2022/06/29 11:58:35;;;;;;;4.70;2.30;;;;;;;34.01;30.29;98330.50;5032363;28;20580;-58
2022/06/29 12:01:00;;;;;;;2.15;2.00;;;;;;;33.99;29.65;98332.59;5031800;28;20753;-58
2022/06/29 12:03:26;;;;;;;5.72;2.10;;;;;;;34.04;29.74;98332.66;5031959;28;20267;-59